createdAt,value
2023-03-16T01:29:56.554Z,1.10
2023-03-16T01:34:50.831Z,1.10
2023-03-16T01:39:51.358Z,1.10
2023-03-16T01:44:51.390Z,1.10
2023-03-16T01:49:54.586Z,1.00
2023-03-16T01:54:53.835Z,1.00
2023-03-16T02:00:00.736Z,1.00
2023-03-16T02:04:54.070Z,1.00
2023-03-16T02:09:54.146Z,1.10
2023-03-16T02:14:47.120Z,1.10
2023-03-16T02:19:47.599Z,1.20
2023-03-16T02:24:53.501Z,1.00
2023-03-16T02:29:41.201Z,1.40
2023-03-16T02:34:40.385Z,1.40
2023-03-16T02:39:30.322Z,1.60
2023-03-16T02:44:23.810Z,1.70
2023-03-16T02:49:14.500Z,1.70
2023-03-16T02:54:06.008Z,1.80
2023-03-16T02:59:01.542Z,1.80
2023-03-16T03:03:52.641Z,1.90
2023-03-16T03:08:47.757Z,1.90
2023-03-16T03:13:50.532Z,2.00
2023-03-16T03:18:41.628Z,2.10
2023-03-16T03:23:32.923Z,2.10
2023-03-16T03:28:39.933Z,2.10
2023-03-16T03:33:40.025Z,2.10
2023-03-16T03:38:35.509Z,2.00
2023-03-16T03:43:37.977Z,2.20
2023-03-16T03:48:30.912Z,2.30
2023-03-16T03:53:38.558Z,2.30
2023-03-16T03:58:36.009Z,2.30
2023-03-16T04:03:38.359Z,2.30
2023-03-16T04:08:33.957Z,2.40
2023-03-16T04:13:27.225Z,2.50
2023-03-16T04:18:31.891Z,2.60
2023-03-16T04:23:22.606Z,2.70
2023-03-16T04:28:15.975Z,2.70
2023-03-16T04:33:07.082Z,2.80
2023-03-16T04:38:00.683Z,2.80
2023-03-16T04:42:53.606Z,2.90
2023-03-16T04:47:52.155Z,2.90
2023-03-16T04:52:42.930Z,2.90
2023-03-16T04:57:36.243Z,2.90
2023-03-16T05:02:33.693Z,3.00
2023-03-16T05:07:29.752Z,3.00
2023-03-16T05:12:34.521Z,3.10
2023-03-16T05:17:27.228Z,3.10
2023-03-16T05:22:27.801Z,3.00
2023-03-16T05:27:21.225Z,3.10
2023-03-16T05:32:12.151Z,3.10
2023-03-16T05:37:05.068Z,3.10
2023-03-16T05:43:57.146Z,3.30
2023-03-16T06:43:42.595Z,5.00
2023-03-16T06:48:32.097Z,4.90
2023-03-16T06:53:23.717Z,4.80
2023-03-16T06:58:14.223Z,4.80
2023-03-16T07:03:08.549Z,5.00
2023-03-16T07:07:56.343Z,5.10
2023-03-16T07:12:54.656Z,5.30
2023-03-16T07:17:45.647Z,5.50
2023-03-16T07:22:50.348Z,5.60
2023-03-16T07:27:45.417Z,5.80
2023-03-16T07:31:25.714Z,5.90
2023-03-16T07:36:16.359Z,5.90
2023-03-16T07:41:07.901Z,6.00
2023-03-16T07:45:58.449Z,6.20
2023-03-16T07:50:49.862Z,6.40
2023-03-16T07:55:43.151Z,6.50
2023-03-16T08:00:34.250Z,6.60
2023-03-16T08:05:38.837Z,6.70
2023-03-16T08:10:29.826Z,6.70
2023-03-16T08:15:23.905Z,6.80
2023-03-16T08:20:14.678Z,6.90
2023-03-16T08:25:12.770Z,7.00
2023-03-16T08:30:03.478Z,7.30
2023-03-16T08:30:48.947Z,7.30
2023-03-16T08:35:44.509Z,7.60
2023-03-16T08:40:37.803Z,7.80
2023-03-16T08:45:28.530Z,8.20
2023-03-16T08:50:24.476Z,8.60
2023-03-16T08:55:15.573Z,8.90
2023-03-16T09:00:08.878Z,9.00
2023-03-16T09:04:59.569Z,9.30
2023-03-16T09:09:53.202Z,9.20
2023-03-16T09:14:58.752Z,9.30
2023-03-16T09:20:11.411Z,9.20
2023-03-16T09:24:50.886Z,9.20
2023-03-16T09:29:46.889Z,9.30
2023-03-16T09:34:39.796Z,9.30
2023-03-16T09:39:34.404Z,9.30
2023-03-16T09:44:24.174Z,9.10
2023-03-16T09:49:20.159Z,9.10
2023-03-16T09:54:15.340Z,9.10
2023-03-16T09:59:16.564Z,9.30
2023-03-16T10:04:11.069Z,9.40
2023-03-16T10:09:09.587Z,9.50
2023-03-16T10:13:59.938Z,9.60
2023-03-16T10:18:56.733Z,9.40
2023-03-16T10:23:55.962Z,9.40
2023-03-16T10:28:49.453Z,9.40
2023-03-16T10:33:49.380Z,9.50
2023-03-16T10:38:49.129Z,9.80
2023-03-16T10:44:01.553Z,10.00
2023-03-16T10:48:53.916Z,10.10
2023-03-16T10:53:49.521Z,10.10
2023-03-16T10:58:40.548Z,10.00
2023-03-16T11:03:34.556Z,10.10
2023-03-16T11:08:24.937Z,9.90
2023-03-16T11:13:18.696Z,10.10
2023-03-16T11:18:11.556Z,10.20
2023-03-16T11:23:12.657Z,10.60
2023-03-16T11:28:00.512Z,10.50
2023-03-16T11:33:12.203Z,10.40
2023-03-16T11:38:07.863Z,10.50
2023-03-16T11:43:03.374Z,10.40
2023-03-16T11:47:56.362Z,10.20
2023-03-16T11:52:50.275Z,10.30
2023-03-16T11:57:49.121Z,10.30
2023-03-16T12:02:41.277Z,10.30
2023-03-16T12:07:31.921Z,10.20
2023-03-16T12:12:32.004Z,10.10
2023-03-16T12:17:23.362Z,10.20
2023-03-16T12:22:23.821Z,10.50
2023-03-16T12:27:19.267Z,10.80
2023-03-16T12:32:14.971Z,10.90
2023-03-16T12:37:18.552Z,10.90
2023-03-16T12:42:05.846Z,11.20
2023-03-16T12:47:04.017Z,11.50
2023-03-16T12:51:57.626Z,11.30
2023-03-16T12:56:59.634Z,11.50
2023-03-16T13:01:50.664Z,11.50
2023-03-16T13:06:44.382Z,11.20
2023-03-16T13:11:42.234Z,11.30
2023-03-16T13:16:40.122Z,11.50
2023-03-16T13:21:33.035Z,11.20
2023-03-16T13:26:26.754Z,11.30
2023-03-16T13:31:17.418Z,11.30
2023-03-16T13:36:15.571Z,11.20
2023-03-16T13:41:05.053Z,11.20
2023-03-16T13:45:58.810Z,11.30
2023-03-16T13:50:51.693Z,11.60
2023-03-16T13:55:46.590Z,12.10
2023-03-16T14:00:41.113Z,12.30
2023-03-16T14:05:37.006Z,12.30
2023-03-16T14:10:34.537Z,12.30
2023-03-16T14:15:36.327Z,12.30
2023-03-16T14:20:48.272Z,12.30
2023-03-16T14:25:41.568Z,12.00
2023-03-16T14:30:47.545Z,11.90
2023-03-16T14:35:37.721Z,11.70
2023-03-16T14:40:42.225Z,11.90
2023-03-16T14:45:37.422Z,12.10
2023-03-16T14:50:38.544Z,12.40
2023-03-16T14:55:29.273Z,12.30
2023-03-16T15:00:19.708Z,12.10
2023-03-16T15:05:13.385Z,12.30
2023-03-16T15:10:11.185Z,12.10
2023-03-16T15:15:04.537Z,12.00
2023-03-16T15:20:04.670Z,12.20
2023-03-16T15:24:59.809Z,12.30
2023-03-16T15:30:00.589Z,12.40
2023-03-16T15:34:50.973Z,12.50
2023-03-16T15:39:51.623Z,12.50
2023-03-16T15:44:44.421Z,12.40
2023-03-16T15:49:47.023Z,12.60
2023-03-16T15:54:31.023Z,12.70
2023-03-16T15:59:27.282Z,12.70
2023-03-16T16:04:20.234Z,12.70
2023-03-16T16:09:18.391Z,12.60
2023-03-16T16:14:22.968Z,12.60
2023-03-16T16:19:15.869Z,12.60
2023-03-16T16:24:26.549Z,12.90
2023-03-16T16:29:16.112Z,12.80
2023-03-16T16:34:09.965Z,12.50
2023-03-16T16:39:00.512Z,12.70
2023-03-16T16:43:54.563Z,12.80
2023-03-16T16:48:42.624Z,12.90
2023-03-16T16:53:36.532Z,13.10
2023-03-16T17:28:17.535Z,11.10
2023-03-16T17:33:05.377Z,10.70
2023-03-16T17:37:58.654Z,10.20
2023-03-16T17:42:51.593Z,9.80
2023-03-16T17:47:45.339Z,9.60
2023-03-16T17:52:55.725Z,9.40
2023-03-16T17:57:45.431Z,9.30
2023-03-16T18:02:38.794Z,9.20
2023-03-16T18:07:34.755Z,9.10
2023-03-16T18:12:39.737Z,9.00
2023-03-16T18:17:37.661Z,8.80
2023-03-16T18:22:42.236Z,8.70
2023-03-16T18:27:37.684Z,8.60
2023-03-16T18:32:33.461Z,8.40
2023-03-16T18:37:35.400Z,8.20
2023-03-16T18:42:33.200Z,8.10
2023-03-16T18:47:36.557Z,8.00
2023-03-16T18:52:28.882Z,7.90
2023-03-16T18:57:22.602Z,7.80
2023-03-16T19:02:22.829Z,7.80
2023-03-16T19:07:34.504Z,7.70
2023-03-16T19:12:34.181Z,7.60
2023-03-16T19:17:27.099Z,7.50
2023-03-16T19:22:25.302Z,7.40
2023-03-16T19:27:16.468Z,7.30
2023-03-16T19:32:12.021Z,7.30
2023-03-16T19:37:12.106Z,7.20
2023-03-16T19:42:07.280Z,7.20
2023-03-16T19:46:58.371Z,7.20
2023-03-16T19:51:53.895Z,7.20
2023-03-16T19:56:53.688Z,7.20
2023-03-16T20:01:47.085Z,7.20
2023-03-16T20:06:40.381Z,7.20
2023-03-16T20:11:33.314Z,7.10
2023-03-16T20:16:27.096Z,7.00
2023-03-16T20:21:29.544Z,7.00
2023-03-16T20:26:20.353Z,7.00
2023-03-16T20:31:27.688Z,7.00
2023-03-16T20:36:32.207Z,7.00
2023-03-16T20:41:23.329Z,7.00
2023-03-16T20:46:23.511Z,7.00
2023-03-16T20:51:14.091Z,7.10
2023-03-16T20:56:09.661Z,7.10
2023-03-16T21:01:17.623Z,7.10
2023-03-16T21:06:05.299Z,7.10
2023-03-16T21:10:58.923Z,7.10
2023-03-16T21:16:00.096Z,7.10
2023-03-16T21:20:55.202Z,7.10
2023-03-16T21:25:55.495Z,7.10
2023-03-16T21:30:46.368Z,7.10
2023-03-16T21:35:45.059Z,7.00
2023-03-16T21:40:42.388Z,7.00
2023-03-16T21:45:42.776Z,6.90
2023-03-16T21:50:42.948Z,6.90
2023-03-16T21:55:33.885Z,6.90
2023-03-16T22:00:30.512Z,6.90
2023-03-16T22:05:32.051Z,6.90
2023-03-16T22:10:24.881Z,6.80
2023-03-16T22:15:29.932Z,6.70
2023-03-16T22:20:27.740Z,6.60
2023-03-16T22:25:18.826Z,6.50
2023-03-16T22:30:16.259Z,6.40
2023-03-16T22:35:09.953Z,6.30
2023-03-16T22:40:03.262Z,6.20
2023-03-16T22:44:59.591Z,6.10
2023-03-16T22:49:51.878Z,6.10
2023-03-16T22:54:45.519Z,6.20
2023-03-16T22:59:50.117Z,6.10
2023-03-16T23:04:41.382Z,6.10
2023-03-16T23:09:34.483Z,6.10
2023-03-16T23:14:36.886Z,6.20
2023-03-16T23:19:30.162Z,6.20
2023-03-16T23:24:28.048Z,6.20
2023-03-16T23:29:18.707Z,6.20
2023-03-16T23:34:25.543Z,6.30
2023-03-16T23:39:15.541Z,6.30
2023-03-16T23:44:11.158Z,6.30
2023-03-16T23:49:04.119Z,6.20
2023-03-16T23:53:58.218Z,6.30
2023-03-16T23:58:51.516Z,6.40
